Thalia — FPCS — position and weather

sailwx.info

Track history (hours):
 
Tides and Currents Weather Stations Pressure Air Temp Water Temp Dewpoint Dewpoint Depression Visibility Wind Speed Wind Dir Waves Ship Positions

Oceanographic research ship Thalia (France)

Detailed information on ship capabilities available from University of Delaware's Ocean Information Center.

Last reported at 2017-Jun-26 08:16 UTC. Time now 2017-Jun-26 08:39 UTC.
Position N 46°49' W 004°13'.

Length 25 m; beam 7 m.

MMSI: 227270000.

Date/timePositionNaut miles runAvg speedWind from/ knotsBaromVisibWave heightAir tempDewpointWater temp
2017-Jun-26 08:16N 46°49' W 004°13'510.4
2017-Jun-26 07:49N 46°46' W 004°08'610.2
2017-Jun-26 07:15N 46°42' W 004°01'210.1
2017-Jun-26 07:00N 46°41' W 003°59'2810.1
2017-Jun-26 04:12N 46°22' W 003°28'310.1
2017-Jun-26 03:55N 46°20' W 003°25'710.2
2017-Jun-26 03:14N 46°15' W 003°18'  
2017-Jun-23 13:48N 45°22' W 000°49'413.6
2017-Jun-23 13:30N 45°25' W 000°52'713.7
2017-Jun-23 13:00N 45°31' W 000°58'712.9
2017-Jun-23 12:30N 45°36' W 001°04'611.4
2017-Jun-23 12:01N 45°40' W 001°10'1 0.9
2017-Jun-23 11:23N 45°40' W 001°10'0 0.0
2017-Jun-23 10:59N 45°40' W 001°11'0 0.1
2017-Jun-23 10:29N 45°40' W 001°11'0 0.0
2017-Jun-23 09:59N 45°40' W 001°11'0 0.0
2017-Jun-23 09:13N 45°40' W 001°11'0 0.0
2017-Jun-23 07:19N 45°40' W 001°11'0 0.0
2017-Jun-23 06:39N 45°40' W 001°11'0 0.0
2017-Jun-23 05:45N 45°40' W 001°11'0 0.0
2017-Jun-23 05:15N 45°40' W 001°11'0 0.0
2017-Jun-23 04:57N 45°40' W 001°11'0 0.0
2017-Jun-23 04:23N 45°40' W 001°11'0 0.1
2017-Jun-23 03:56N 45°40' W 001°10'0 0.0
2017-Jun-23 03:17N 45°40' W 001°10'0 0.0
2017-Jun-22 11:58N 45°40' W 001°10'0 0.0
2017-Jun-22 05:28N 45°40' W 001°11'0 0.0
2017-Jun-22 04:58N 45°40' W 001°11'0 0.0
2017-Jun-22 04:25N 45°40' W 001°11'0 0.0
2017-Jun-22 03:40N 45°40' W 001°11'0 0.0
2017-Jun-22 03:18N 45°40' W 001°10'0 0.0
2017-Jun-22 02:18N 45°40' W 001°10'0 0.0
2017-Jun-22 01:53N 45°40' W 001°10'0 0.0
2017-Jun-22 01:17N 45°40' W 001°10'0 0.0
2017-Jun-22 00:53N 45°40' W 001°10'0 0.0
2017-Jun-21 23:10N 45°40' W 001°10'0 0.1
2017-Jun-21 22:55N 45°40' W 001°10'0 0.0
2017-Jun-21 22:28N 45°40' W 001°11'0 0.0
2017-Jun-21 21:52N 45°40' W 001°11'0 0.0
2017-Jun-21 21:28N 45°40' W 001°11'0 0.0
2017-Jun-21 20:57N 45°40' W 001°11'0 0.0
2017-Jun-21 20:27N 45°40' W 001°11'0 0.0
2017-Jun-21 20:00N 45°40' W 001°11'0 0.0
2017-Jun-21 19:27N 45°40' W 001°11'0 0.0
2017-Jun-21 18:56N 45°40' W 001°11'0 0.0
2017-Jun-21 18:26N 45°40' W 001°11'0 0.0
2017-Jun-21 17:56N 45°40' W 001°11'0 0.0
2017-Jun-21 17:20N 45°40' W 001°11'0 0.0
2017-Jun-21 16:59N 45°40' W 001°11'0 0.1
2017-Jun-21 16:28N 45°40' W 001°11'0 0.0
2017-Jun-21 15:55N 45°40' W 001°11'0 0.0
2017-Jun-21 15:28N 45°40' W 001°11'3 1.6
2017-Jun-21 13:24N 45°39' W 001°15'4 7.5
2017-Jun-21 12:50N 45°37' W 001°20'3 6.2
2017-Jun-21 12:24N 45°35' W 001°22'4 5.4
2017-Jun-21 11:40N 45°31' W 001°21'1 7.7
2017-Jun-21 11:28N 45°29' W 001°21'1 2.9
2017-Jun-21 11:00N 45°28' W 001°21'0 0.0
2017-Jun-21 10:30N 45°28' W 001°21'2 3.9
2017-Jun-21 10:00N 45°29' W 001°19'2 4.3
2017-Jun-21 09:30N 45°30' W 001°16'2 4.3
2017-Jun-21 09:00N 45°31' W 001°13'3 6.8
2017-Jun-21 08:30N 45°32' W 001°09'4 5.9
2017-Jun-21 07:50N 45°35' W 001°05'3 9.5
2017-Jun-21 07:30N 45°33' W 001°01'612.5
2017-Jun-21 06:59N 45°28' W 000°55'1714.1
2017-Jun-21 05:49N 45°13' W 000°44'1313.1
2017-Jun-21 04:49N 45°02' W 000°36'8 4.7
2017-Jun-21 03:09N 44°54' W 000°32'0 0.0
2017-Jun-21 02:57N 44°54' W 000°32'0 0.0
2017-Jun-21 01:44N 44°54' W 000°32'45 1.0
2017-Jun-19 02:54N 45°34' W 001°03'0 0.0
2017-Jun-19 02:24N 45°34' W 001°03'0 0.0
2017-Jun-19 01:51N 45°34' W 001°03'0 0.0
2017-Jun-19 01:29N 45°34' W 001°03'0 0.0
2017-Jun-19 00:59N 45°34' W 001°03'0 0.0
2017-Jun-19 00:26N 45°34' W 001°03'0 0.0
2017-Jun-18 23:50N 45°34' W 001°03'0 0.0
2017-Jun-18 23:07N 45°34' W 001°03'0 0.0
2017-Jun-18 22:58N 45°34' W 001°03'0 0.0
2017-Jun-18 22:16N 45°34' W 001°03'0 0.0
2017-Jun-18 21:55N 45°34' W 001°03'0 0.0
2017-Jun-18 21:22N 45°34' W 001°03'0 0.1
2017-Jun-18 20:57N 45°34' W 001°03'0 0.0
2017-Jun-18 20:24N 45°34' W 001°03'0 0.0
2017-Jun-18 19:57N 45°34' W 001°03'0 0.0
2017-Jun-18 19:30N 45°34' W 001°03'1 2.5
2017-Jun-18 19:00N 45°35' W 001°03'5 9.9
2017-Jun-18 18:30N 45°38' W 001°08'3 6.8
2017-Jun-18 18:00N 45°40' W 001°12'0 0.0
2017-Jun-18 13:57N 45°40' W 001°12'0 0.0
2017-Jun-18 12:47N 45°40' W 001°12'0 0.0
2017-Jun-18 12:27N 45°40' W 001°12'1 2.9
2017-Jun-18 12:00N 45°39' W 001°14'3 5.8
2017-Jun-18 11:29N 45°38' W 001°18'3 5.7
2017-Jun-18 11:00N 45°37' W 001°21'3 6.5
2017-Jun-18 10:30N 45°38' W 001°18'4 6.9
2017-Jun-18 09:56N 45°40' W 001°12'3 6.6
2017-Jun-18 09:29N 45°39' W 001°08'3 6.2
2017-Jun-18 09:00N 45°37' W 001°05'3 5.9
2017-Jun-18 08:30N 45°35' W 001°03'2 4.3
2017-Jun-18 08:00N 45°33' W 001°01'0 0.4
2017-Jun-18 07:30N 45°33' W 001°01'2 3.6
2017-Jun-18 07:00N 45°31' W 000°59'2 4.2
2017-Jun-18 06:30N 45°30' W 000°57'3 5.8
2017-Jun-18 06:00N 45°32' W 001°00'3 5.3
2017-Jun-18 05:29N 45°34' W 001°03'0 0.0
2017-Jun-18 04:56N 45°34' W 001°03'0 0.0
2017-Jun-18 04:17N 45°34' W 001°03'0 0.0
2017-Jun-18 03:50N 45°34' W 001°03'0 0.0
2017-Jun-18 03:16N 45°34' W 001°03'0 0.0
2017-Jun-18 02:52N 45°34' W 001°03'0 0.0
2017-Jun-18 02:25N 45°34' W 001°03'0 0.0
2017-Jun-18 01:55N 45°34' W 001°03'0 0.0
2017-Jun-18 01:30N 45°34' W 001°03'0 0.0
2017-Jun-18 00:57N 45°34' W 001°03'0 0.0
2017-Jun-18 00:24N 45°34' W 001°03'0 0.0
2017-Jun-18 00:00N 45°34' W 001°03'0 0.1
2017-Jun-17 23:24N 45°34' W 001°03'0 0.0
2017-Jun-17 22:53N 45°34' W 001°03'0 0.0
2017-Jun-17 22:14N 45°34' W 001°03'0 0.0
2017-Jun-17 21:59N 45°34' W 001°03'0 0.0
2017-Jun-17 21:26N 45°34' W 001°03'0 0.0
2017-Jun-17 20:59N 45°34' W 001°03'0 0.0
2017-Jun-17 20:25N 45°34' W 001°03'0 0.0
2017-Jun-17 19:52N 45°34' W 001°03'0 0.0
2017-Jun-17 19:28N 45°34' W 001°03'0 0.0
2017-Jun-17 18:33N 45°34' W 001°03'0 0.1
2017-Jun-17 18:27N 45°34' W 001°03'0 0.0
2017-Jun-17 17:57N 45°34' W 001°03'0 0.0
2017-Jun-17 17:28N 45°34' W 001°03'3 6.5
2017-Jun-17 17:00N 45°32' W 000°60'510.8
2017-Jun-17 16:30N 45°28' W 000°55'911.2
2017-Jun-17 15:40N 45°20' W 000°47'  
Track history (hours):
 
Tides and Currents Weather Stations Pressure Air Temp Water Temp Dewpoint Dewpoint Depression Visibility Wind Speed Wind Dir Waves Ship Positions

Oceanographic research ship Thalia (France)

Detailed information on ship capabilities available from University of Delaware's Ocean Information Center.

Last reported at 2017-Jun-26 08:16 UTC. Time now 2017-Jun-26 08:39 UTC.
Position N 46°49' W 004°13'.

Length 25 m; beam 7 m.

MMSI: 227270000.

Date/timePositionNaut miles runAvg speedWind from/ knotsBaromVisibWave heightAir tempDewpointWater temp
2017-Jun-26 08:16N 46°49' W 004°13'510.4
2017-Jun-26 07:49N 46°46' W 004°08'610.2
2017-Jun-26 07:15N 46°42' W 004°01'210.1
2017-Jun-26 07:00N 46°41' W 003°59'2810.1
2017-Jun-26 04:12N 46°22' W 003°28'310.1
2017-Jun-26 03:55N 46°20' W 003°25'710.2
2017-Jun-26 03:14N 46°15' W 003°18'  
2017-Jun-23 13:48N 45°22' W 000°49'413.6
2017-Jun-23 13:30N 45°25' W 000°52'713.7
2017-Jun-23 13:00N 45°31' W 000°58'712.9
2017-Jun-23 12:30N 45°36' W 001°04'611.4
2017-Jun-23 12:01N 45°40' W 001°10'1 0.9
2017-Jun-23 11:23N 45°40' W 001°10'0 0.0
2017-Jun-23 10:59N 45°40' W 001°11'0 0.1
2017-Jun-23 10:29N 45°40' W 001°11'0 0.0
2017-Jun-23 09:59N 45°40' W 001°11'0 0.0
2017-Jun-23 09:13N 45°40' W 001°11'0 0.0
2017-Jun-23 07:19N 45°40' W 001°11'0 0.0
2017-Jun-23 06:39N 45°40' W 001°11'0 0.0
2017-Jun-23 05:45N 45°40' W 001°11'0 0.0
2017-Jun-23 05:15N 45°40' W 001°11'0 0.0
2017-Jun-23 04:57N 45°40' W 001°11'0 0.0
2017-Jun-23 04:23N 45°40' W 001°11'0 0.1
2017-Jun-23 03:56N 45°40' W 001°10'0 0.0
2017-Jun-23 03:17N 45°40' W 001°10'0 0.0
2017-Jun-22 11:58N 45°40' W 001°10'0 0.0
2017-Jun-22 05:28N 45°40' W 001°11'0 0.0
2017-Jun-22 04:58N 45°40' W 001°11'0 0.0
2017-Jun-22 04:25N 45°40' W 001°11'0 0.0
2017-Jun-22 03:40N 45°40' W 001°11'0 0.0
2017-Jun-22 03:18N 45°40' W 001°10'0 0.0
2017-Jun-22 02:18N 45°40' W 001°10'0 0.0
2017-Jun-22 01:53N 45°40' W 001°10'0 0.0
2017-Jun-22 01:17N 45°40' W 001°10'0 0.0
2017-Jun-22 00:53N 45°40' W 001°10'0 0.0
2017-Jun-21 23:10N 45°40' W 001°10'0 0.1
2017-Jun-21 22:55N 45°40' W 001°10'0 0.0
2017-Jun-21 22:28N 45°40' W 001°11'0 0.0
2017-Jun-21 21:52N 45°40' W 001°11'0 0.0
2017-Jun-21 21:28N 45°40' W 001°11'0 0.0
2017-Jun-21 20:57N 45°40' W 001°11'0 0.0
2017-Jun-21 20:27N 45°40' W 001°11'0 0.0
2017-Jun-21 20:00N 45°40' W 001°11'0 0.0
2017-Jun-21 19:27N 45°40' W 001°11'0 0.0
2017-Jun-21 18:56N 45°40' W 001°11'0 0.0
2017-Jun-21 18:26N 45°40' W 001°11'0 0.0
2017-Jun-21 17:56N 45°40' W 001°11'0 0.0
2017-Jun-21 17:20N 45°40' W 001°11'0 0.0
2017-Jun-21 16:59N 45°40' W 001°11'0 0.1
2017-Jun-21 16:28N 45°40' W 001°11'0 0.0
2017-Jun-21 15:55N 45°40' W 001°11'0 0.0
2017-Jun-21 15:28N 45°40' W 001°11'3 1.6
2017-Jun-21 13:24N 45°39' W 001°15'4 7.5
2017-Jun-21 12:50N 45°37' W 001°20'3 6.2
2017-Jun-21 12:24N 45°35' W 001°22'4 5.4
2017-Jun-21 11:40N 45°31' W 001°21'1 7.7
2017-Jun-21 11:28N 45°29' W 001°21'1 2.9
2017-Jun-21 11:00N 45°28' W 001°21'0 0.0
2017-Jun-21 10:30N 45°28' W 001°21'2 3.9
2017-Jun-21 10:00N 45°29' W 001°19'2 4.3
2017-Jun-21 09:30N 45°30' W 001°16'2 4.3
2017-Jun-21 09:00N 45°31' W 001°13'3 6.8
2017-Jun-21 08:30N 45°32' W 001°09'4 5.9
2017-Jun-21 07:50N 45°35' W 001°05'3 9.5
2017-Jun-21 07:30N 45°33' W 001°01'612.5
2017-Jun-21 06:59N 45°28' W 000°55'1714.1
2017-Jun-21 05:49N 45°13' W 000°44'1313.1
2017-Jun-21 04:49N 45°02' W 000°36'8 4.7
2017-Jun-21 03:09N 44°54' W 000°32'0 0.0
2017-Jun-21 02:57N 44°54' W 000°32'0 0.0
2017-Jun-21 01:44N 44°54' W 000°32'45 1.0
2017-Jun-19 02:54N 45°34' W 001°03'0 0.0
2017-Jun-19 02:24N 45°34' W 001°03'0 0.0
2017-Jun-19 01:51N 45°34' W 001°03'0 0.0
2017-Jun-19 01:29N 45°34' W 001°03'0 0.0
2017-Jun-19 00:59N 45°34' W 001°03'0 0.0
2017-Jun-19 00:26N 45°34' W 001°03'0 0.0
2017-Jun-18 23:50N 45°34' W 001°03'0 0.0
2017-Jun-18 23:07N 45°34' W 001°03'0 0.0
2017-Jun-18 22:58N 45°34' W 001°03'0 0.0
2017-Jun-18 22:16N 45°34' W 001°03'0 0.0
2017-Jun-18 21:55N 45°34' W 001°03'0 0.0
2017-Jun-18 21:22N 45°34' W 001°03'0 0.1
2017-Jun-18 20:57N 45°34' W 001°03'0 0.0
2017-Jun-18 20:24N 45°34' W 001°03'0 0.0
2017-Jun-18 19:57N 45°34' W 001°03'0 0.0
2017-Jun-18 19:30N 45°34' W 001°03'1 2.5
2017-Jun-18 19:00N 45°35' W 001°03'5 9.9
2017-Jun-18 18:30N 45°38' W 001°08'3 6.8
2017-Jun-18 18:00N 45°40' W 001°12'0 0.0
2017-Jun-18 13:57N 45°40' W 001°12'0 0.0
2017-Jun-18 12:47N 45°40' W 001°12'0 0.0
2017-Jun-18 12:27N 45°40' W 001°12'1 2.9
2017-Jun-18 12:00N 45°39' W 001°14'3 5.8
2017-Jun-18 11:29N 45°38' W 001°18'3 5.7
2017-Jun-18 11:00N 45°37' W 001°21'3 6.5
2017-Jun-18 10:30N 45°38' W 001°18'4 6.9
2017-Jun-18 09:56N 45°40' W 001°12'3 6.6
2017-Jun-18 09:29N 45°39' W 001°08'3 6.2
2017-Jun-18 09:00N 45°37' W 001°05'3 5.9
2017-Jun-18 08:30N 45°35' W 001°03'2 4.3
2017-Jun-18 08:00N 45°33' W 001°01'0 0.4
2017-Jun-18 07:30N 45°33' W 001°01'2 3.6
2017-Jun-18 07:00N 45°31' W 000°59'2 4.2
2017-Jun-18 06:30N 45°30' W 000°57'3 5.8
2017-Jun-18 06:00N 45°32' W 001°00'3 5.3
2017-Jun-18 05:29N 45°34' W 001°03'0 0.0
2017-Jun-18 04:56N 45°34' W 001°03'0 0.0
2017-Jun-18 04:17N 45°34' W 001°03'0 0.0
2017-Jun-18 03:50N 45°34' W 001°03'0 0.0
2017-Jun-18 03:16N 45°34' W 001°03'0 0.0
2017-Jun-18 02:52N 45°34' W 001°03'0 0.0
2017-Jun-18 02:25N 45°34' W 001°03'0 0.0
2017-Jun-18 01:55N 45°34' W 001°03'0 0.0
2017-Jun-18 01:30N 45°34' W 001°03'0 0.0
2017-Jun-18 00:57N 45°34' W 001°03'0 0.0
2017-Jun-18 00:24N 45°34' W 001°03'0 0.0
2017-Jun-18 00:00N 45°34' W 001°03'0 0.1
2017-Jun-17 23:24N 45°34' W 001°03'0 0.0
2017-Jun-17 22:53N 45°34' W 001°03'0 0.0
2017-Jun-17 22:14N 45°34' W 001°03'0 0.0
2017-Jun-17 21:59N 45°34' W 001°03'0 0.0
2017-Jun-17 21:26N 45°34' W 001°03'0 0.0
2017-Jun-17 20:59N 45°34' W 001°03'0 0.0
2017-Jun-17 20:25N 45°34' W 001°03'0 0.0
2017-Jun-17 19:52N 45°34' W 001°03'0 0.0
2017-Jun-17 19:28N 45°34' W 001°03'0 0.0
2017-Jun-17 18:33N 45°34' W 001°03'0 0.1
2017-Jun-17 18:27N 45°34' W 001°03'0 0.0
2017-Jun-17 17:57N 45°34' W 001°03'0 0.0
2017-Jun-17 17:28N 45°34' W 001°03'3 6.5
2017-Jun-17 17:00N 45°32' W 000°60'510.8
2017-Jun-17 16:30N 45°28' W 000°55'911.2
2017-Jun-17 15:40N 45°20' W 000°47'  

Dump ship's entire track history